Time;durP1;ratioP1;P1;durP2;ratioP2;P2;SDS_P1;SDS_P2;PMS_P1;PMS_P2;Temp;Humidity;BMP_temperature;BMP_pressure;BME280_temperature;BME280_humidity;BME280_pressure;Samples;Min_cycle;Max_cycle;Signal;HPM_P1;HPM_P2
2022/08/06 00:01:12;;;;;;;44.55;30.27;;;;;;;30.04;79.31;97592.97;4970533;28;20113;-70
2022/08/06 00:04:01;;;;;;;44.35;27.98;;;;;;;29.86;79.99;97601.75;4970420;28;20051;-70
2022/08/06 00:06:43;;;;;;;46.03;29.20;;;;;;;29.62;80.62;97605.66;4968616;28;20050;-70
2022/08/06 00:09:33;;;;;;;48.47;29.73;;;;;;;29.71;81.02;97610.16;4970136;28;20061;-70
2022/08/06 00:12:35;;;;;;;43.40;28.95;;;;;;;29.84;80.27;97611.59;4970598;28;20047;-71
2022/08/06 00:15:28;;;;;;;49.17;30.90;;;;;;;29.63;81.68;97615.56;4969280;28;20132;-70
2022/08/06 00:18:43;;;;;;;48.00;29.60;;;;;;;29.89;80.54;97622.38;4969764;28;20039;-70
2022/08/06 00:21:19;;;;;;;50.28;30.85;;;;;;;29.82;80.51;97619.47;4967945;28;20417;-70
2022/08/06 00:24:29;;;;;;;46.03;30.38;;;;;;;29.91;80.72;97620.03;4952355;28;20054;-70
2022/08/06 00:27:05;;;;;;;52.50;31.38;;;;;;;29.99;79.87;97620.94;4969875;28;20211;-70
2022/08/06 00:30:02;;;;;;;48.20;31.00;;;;;;;29.99;80.09;97623.72;4969523;28;20057;-69
2022/08/06 00:32:39;;;;;;;47.97;30.95;;;;;;;29.95;80.42;97622.88;4966614;28;20058;-70
2022/08/06 00:35:32;;;;;;;47.60;30.23;;;;;;;29.92;80.48;97629.13;4969908;28;20110;-70
2022/08/06 00:38:25;;;;;;;50.28;31.17;;;;;;;29.93;80.83;97626.00;4969570;28;20054;-70
2022/08/06 00:41:08;;;;;;;49.03;30.33;;;;;;;30.08;79.45;97618.75;4969939;28;20141;-70
2022/08/06 00:43:57;;;;;;;51.72;31.40;;;;;;;29.96;80.76;97618.91;4969971;28;20196;-70
2022/08/06 00:46:43;;;;;;;51.05;29.58;;;;;;;29.90;80.11;97618.41;4969903;28;20138;-70
2022/08/06 00:49:34;;;;;;;54.03;32.35;;;;;;;29.97;80.27;97620.53;4968647;28;20062;-70
2022/08/06 00:52:30;;;;;;;56.25;32.28;;;;;;;29.90;80.65;97625.94;4950116;28;20047;-70
2022/08/06 00:55:19;;;;;;;51.17;30.92;;;;;;;29.96;80.56;97625.25;4950909;28;20074;-70
2022/08/06 00:58:12;;;;;;;47.90;30.83;;;;;;;30.03;80.26;97628.13;4950953;28;20153;-70
2022/08/06 01:01:01;;;;;;;51.45;30.50;;;;;;;29.86;80.92;97626.66;4954967;28;20072;-69
2022/08/06 01:03:57;;;;;;;49.05;29.98;;;;;;;30.00;80.36;97626.13;4952939;28;20428;-68
2022/08/06 01:06:46;;;;;;;52.80;32.00;;;;;;;29.85;80.24;97629.81;4941548;28;20079;-70
2022/08/06 01:09:38;;;;;;;46.88;28.85;;;;;;;29.95;80.20;97636.69;4950433;28;20066;-70
2022/08/06 01:12:38;;;;;;;50.70;27.90;;;;;;;30.05;80.32;97644.38;4931845;29;20502;-71
2022/08/06 01:15:22;;;;;;;54.20;30.52;;;;;;;30.02;80.65;97629.31;4934333;28;20473;-70
2022/08/06 01:18:47;;;;;;;53.22;30.50;;;;;;;30.14;79.72;97635.81;4963287;28;20038;-70
2022/08/06 01:21:51;;;;;;;47.53;29.67;;;;;;;29.94;79.86;97637.84;4953918;28;20880;-69
2022/08/06 01:25:38;;;;;;;49.75;30.13;;;;;;;30.06;80.44;97637.69;4956526;28;20058;-70
2022/08/06 01:28:38;;;;;;;48.88;29.25;;;;;;;30.17;80.12;97641.44;4949152;28;20055;-71
2022/08/06 01:31:47;;;;;;;52.22;29.35;;;;;;;30.16;79.70;97645.34;4962997;28;20546;-70
2022/08/06 01:34:55;;;;;;;49.55;28.75;;;;;;;30.12;80.00;97644.50;4949511;28;20105;-70
2022/08/06 01:37:53;;;;;;;48.80;28.75;;;;;;;30.18;79.46;97656.84;4949664;28;20058;-70
2022/08/06 01:40:41;;;;;;;50.88;30.50;;;;;;;30.10;80.28;97666.19;4949896;28;20066;-71
2022/08/06 01:43:35;;;;;;;53.17;30.60;;;;;;;30.10;79.71;97655.13;4948744;28;20427;-69
2022/08/06 01:46:49;;;;;;;49.00;29.15;;;;;;;30.22;79.30;97666.00;4948440;28;20154;-70
2022/08/06 01:49:33;;;;;;;48.50;28.48;;;;;;;30.20;79.61;97673.09;4949087;28;20110;-70
2022/08/06 01:52:49;;;;;;;51.65;29.38;;;;;;;30.22;79.65;97671.53;4948745;28;20621;-69
2022/08/06 01:55:43;;;;;;;48.10;28.98;;;;;;;30.25;78.88;97676.34;4930115;29;20075;-70
2022/08/06 01:58:43;;;;;;;47.97;29.20;;;;;;;30.06;79.71;97668.91;4950658;28;20074;-69
2022/08/06 02:01:35;;;;;;;46.97;29.02;;;;;;;30.30;79.98;97682.72;4935480;29;20657;-70
2022/08/06 02:04:41;;;;;;;49.13;29.08;;;;;;;30.28;80.06;97685.88;4941976;28;20053;-70
2022/08/06 02:07:35;;;;;;;45.03;28.38;;;;;;;30.34;79.49;97686.38;4957513;28;20046;-69
2022/08/06 02:10:42;;;;;;;45.80;29.58;;;;;;;30.39;79.65;97697.16;4958373;28;20061;-71
2022/08/06 02:13:33;;;;;;;44.93;27.87;;;;;;;30.47;80.00;97692.53;4966269;28;20130;-70
2022/08/06 02:16:29;;;;;;;44.92;27.75;;;;;;;30.57;79.60;97695.47;4948713;28;20077;-70
2022/08/06 02:19:32;;;;;;;44.13;28.42;;;;;;;30.57;79.05;97701.03;4957926;28;20046;-70
2022/08/06 02:22:48;;;;;;;42.42;27.33;;;;;;;30.63;78.93;97705.06;4967024;28;20058;-70
2022/08/06 02:25:40;;;;;;;43.53;27.85;;;;;;;30.60;78.83;97711.34;4967491;28;20757;-69
2022/08/06 02:28:38;;;;;;;43.92;26.77;;;;;;;30.61;78.48;97712.94;4953314;28;20055;-70
2022/08/06 02:31:22;;;;;;;42.00;26.17;;;;;;;30.80;78.42;97727.84;4957478;28;20046;-70
2022/08/06 02:34:27;;;;;;;44.92;27.95;;;;;;;30.81;77.77;97721.16;4966355;28;20125;-70
2022/08/06 02:37:26;;;;;;;42.80;26.75;;;;;;;30.68;76.39;97725.28;4966890;28;20089;-71
2022/08/06 02:40:42;;;;;;;40.47;25.48;;;;;;;30.88;77.62;97723.22;4966588;28;20138;-70
2022/08/06 02:43:36;;;;;;;36.70;24.92;;;;;;;31.11;75.91;97731.50;4966398;28;20430;-70
2022/08/06 02:46:25;;;;;;;35.65;23.85;;;;;;;31.16;75.06;97723.66;4947385;28;20486;-70
2022/08/06 02:49:18;;;;;;;40.72;25.60;;;;;;;31.39;75.63;97726.34;4966544;28;20062;-70
2022/08/06 02:52:23;;;;;;;40.10;25.08;;;;;;;31.03;75.55;97736.13;4968000;28;20054;-71
2022/08/06 02:55:14;;;;;;;36.17;24.52;;;;;;;31.29;75.08;97732.53;4966868;28;20137;-71
2022/08/06 02:58:03;;;;;;;38.03;24.42;;;;;;;31.22;74.65;97727.72;4965937;28;20081;-71
2022/08/06 03:01:06;;;;;;;39.03;24.23;;;;;;;31.45;74.71;97731.56;4967058;28;20146;-71
2022/08/06 03:03:46;;;;;;;35.35;23.92;;;;;;;31.36;74.55;97732.63;4967305;28;20101;-72
2022/08/06 03:06:42;;;;;;;35.92;24.23;;;;;;;31.53;73.55;97736.84;4952927;28;20066;-73
2022/08/06 03:09:32;;;;;;;32.80;23.02;;;;;;;31.66;74.06;97737.38;4966955;28;20047;-71
2022/08/06 03:12:19;;;;;;;32.70;23.42;;;;;;;31.97;73.24;97732.59;4929174;29;20066;-70
2022/08/06 03:15:13;;;;;;;33.80;22.70;;;;;;;32.10;74.15;97731.19;4947381;28;20059;-72
2022/08/06 03:18:15;;;;;;;;;;;;;;;32.17;72.23;97742.31;4962979;28;20057;-71
2022/08/06 03:21:16;;;;;;;35.38;24.38;;;;;;;31.98;72.17;97739.72;4970957;28;20320;-70
2022/08/06 03:24:15;;;;;;;34.05;24.67;;;;;;;32.00;72.53;97738.16;4949514;28;20085;-71
2022/08/06 03:27:08;;;;;;;33.70;24.50;;;;;;;31.74;72.71;97741.84;4967452;28;20653;-72
2022/08/06 03:29:58;;;;;;;36.25;23.63;;;;;;;31.80;72.83;97745.88;4969792;28;20047;-72
2022/08/06 03:32:51;;;;;;;35.55;24.88;;;;;;;31.70;72.41;97742.97;4948465;28;20047;-72
2022/08/06 03:35:34;;;;;;;33.10;23.25;;;;;;;31.93;72.53;97731.72;4966680;28;20051;-71
2022/08/06 03:38:34;;;;;;;31.73;23.05;;;;;;;32.15;72.49;97730.81;4965877;28;20047;-71
2022/08/06 03:41:18;;;;;;;37.08;24.75;;;;;;;31.89;73.16;97739.22;4965583;28;20058;-71
2022/08/06 03:44:10;;;;;;;36.03;26.05;;;;;;;31.52;72.70;97745.53;4966299;28;20573;-74
2022/08/06 03:47:16;;;;;;;37.85;26.65;;;;;;;31.97;72.39;97746.47;4966904;28;20098;-71
2022/08/06 03:50:18;;;;;;;37.55;25.58;;;;;;;32.21;71.18;97744.34;4948486;28;20055;-71
2022/08/06 03:53:13;;;;;;;27.30;20.17;;;;;;;32.16;70.56;97748.28;4947964;28;20083;-72
2022/08/06 03:56:08;;;;;;;28.42;20.90;;;;;;;32.29;69.91;97743.22;4947489;28;20050;-71
2022/08/06 03:59:09;;;;;;;29.08;20.33;;;;;;;32.47;67.99;97738.66;4947807;28;20698;-71
2022/08/06 04:01:46;;;;;;;37.58;24.05;;;;;;;32.32;69.11;97742.47;4947357;28;20062;-71
2022/08/06 04:04:39;;;;;;;40.40;28.73;;;;;;;32.52;68.80;97748.59;4946604;28;20051;-68
2022/08/06 04:07:23;;;;;;;85.43;63.30;;;;;;;32.61;68.49;97739.97;4947792;28;20055;-72
2022/08/06 04:10:44;;;;;;;78.30;58.70;;;;;;;32.46;69.41;97744.56;4952991;28;20043;-71
2022/08/06 04:13:38;;;;;;;96.15;75.20;;;;;;;32.51;68.86;97728.34;4949411;28;20142;-71
2022/08/06 04:16:49;;;;;;;91.38;66.60;;;;;;;32.51;69.06;97730.34;4956683;28;20054;-70
2022/08/06 04:19:40;;;;;;;71.82;52.85;;;;;;;32.51;69.30;97730.34;4948603;28;20129;-70
2022/08/06 04:22:24;;;;;;;41.22;29.05;;;;;;;32.04;71.88;97726.34;4962613;28;20706;-70
2022/08/06 04:25:41;;;;;;;54.92;40.00;;;;;;;32.35;70.77;97734.19;4981059;28;20042;-70
2022/08/06 04:28:27;;;;;;;44.42;34.38;;;;;;;32.43;69.82;97732.25;4985235;28;20133;-71
2022/08/06 04:31:16;;;;;;;42.83;32.40;;;;;;;32.68;69.37;97737.25;4970888;28;20055;-71
2022/08/06 04:34:27;;;;;;;;;;;;;;;33.09;68.78;97742.69;4987516;28;20096;-71
2022/08/06 04:37:10;;;;;;;44.35;29.08;;;;;;;32.48;72.61;97734.66;4985983;28;19930;-71
2022/08/06 04:40:02;;;;;;;41.65;27.50;;;;;;;32.70;74.13;97729.34;4989561;28;20050;-71
2022/08/06 04:42:55;;;;;;;43.25;28.98;;;;;;;32.88;72.45;97723.91;4988717;28;20674;-71
2022/08/06 04:45:47;;;;;;;35.92;26.45;;;;;;;32.03;73.17;97736.66;4988870;28;20520;-70
2022/08/06 04:48:56;;;;;;;34.90;25.60;;;;;;;32.93;70.02;97741.00;4984104;28;20078;-68
2022/08/06 04:51:47;;;;;;;43.10;28.83;;;;;;;32.23;73.71;97734.44;4985940;28;20050;-70
2022/08/06 04:54:49;;;;;;;37.50;27.77;;;;;;;31.94;73.89;97736.91;4980647;28;20043;-71
2022/08/06 04:57:39;;;;;;;37.20;26.67;;;;;;;31.98;73.84;97737.75;4972694;28;20058;-71
2022/08/06 05:00:52;;;;;;;37.90;26.52;;;;;;;31.79;74.76;97738.72;4972754;28;20110;-70
2022/08/06 05:03:43;;;;;;;39.95;28.30;;;;;;;31.46;76.68;97736.75;4972297;28;20043;-71
2022/08/06 05:07:28;;;;;;;44.43;30.00;;;;;;;32.08;76.73;97744.63;4969155;28;20123;-71
2022/08/06 05:10:30;;;;;;;38.20;27.05;;;;;;;32.13;76.61;97741.50;4973273;28;20351;-71
2022/08/06 05:13:23;;;;;;;43.67;29.75;;;;;;;31.94;74.85;97731.34;4982230;28;20154;-71
2022/08/06 05:16:21;;;;;;;45.70;29.55;;;;;;;31.84;75.44;97728.50;4969045;28;20054;-70
2022/08/06 05:19:15;;;;;;;41.25;29.08;;;;;;;31.49;76.93;97732.41;4969268;28;20046;-71
2022/08/06 05:22:06;;;;;;;47.25;34.05;;;;;;;30.97;78.22;97732.88;4972581;28;20108;-69
2022/08/06 05:25:15;;;;;;;61.72;37.97;;;;;;;30.31;80.98;97739.69;4965756;28;20110;-70
2022/08/06 05:28:07;;;;;;;59.00;36.08;;;;;;;30.62;80.51;97738.66;4967670;28;20109;-72
2022/08/06 05:30:52;;;;;;;57.83;34.90;;;;;;;30.02;81.93;97741.94;4968955;28;20062;-72
2022/08/06 05:33:44;;;;;;;55.90;35.30;;;;;;;30.09;82.19;97741.28;4968380;28;20418;-72
2022/08/06 05:36:33;;;;;;;51.30;32.28;;;;;;;29.81;82.15;97737.59;4951257;28;20126;-72
2022/08/06 05:39:15;;;;;;;41.03;26.92;;;;;;;29.21;83.02;97735.16;4951584;28;20047;-70
2022/08/06 05:42:30;;;;;;;35.72;24.10;;;;;;;29.40;82.85;97731.59;4968562;28;20051;-70
2022/08/06 05:45:10;;;;;;;30.52;20.88;;;;;;;29.68;82.06;97725.84;4959334;28;20059;-73
2022/08/06 05:48:05;;;;;;;30.95;21.40;;;;;;;29.38;82.66;97722.09;4930389;29;20056;-72
2022/08/06 05:50:56;;;;;;;32.75;21.38;;;;;;;29.56;82.79;97722.44;4934125;29;20066;-71
2022/08/06 05:53:57;;;;;;;32.85;22.23;;;;;;;29.47;83.19;97748.34;4960202;28;20113;-71
2022/08/06 05:56:52;;;;;;;28.05;19.70;;;;;;;29.30;82.57;97747.97;4968499;28;20050;-72
2022/08/06 05:59:59;;;;;;;29.73;19.33;;;;;;;29.63;81.75;97750.25;4967659;28;20058;-71
2022/08/06 06:02:46;;;;;;;24.35;17.40;;;;;;;29.25;82.29;97758.16;4964810;28;20055;-72
2022/08/06 06:05:36;;;;;;;24.98;17.77;;;;;;;29.34;81.78;97748.84;4968242;28;20061;-70
2022/08/06 06:08:46;;;;;;;28.48;17.55;;;;;;;29.41;82.29;97724.94;4968323;28;20046;-72
2022/08/06 06:11:42;;;;;;;25.27;16.10;;;;;;;29.27;81.79;97721.84;4954390;28;20047;-71
2022/08/06 06:14:53;;;;;;;25.48;17.58;;;;;;;28.96;82.69;97720.75;4952893;28;20103;-70
2022/08/06 06:17:46;;;;;;;27.13;18.20;;;;;;;29.24;81.99;97728.13;4967640;28;20047;-71
2022/08/06 06:21:12;;;;;;;32.65;19.55;;;;;;;29.11;82.02;97715.56;4970334;28;20046;-70
2022/08/06 06:24:38;;;;;;;27.80;19.48;;;;;;;28.91;82.73;97715.53;4973718;28;20047;-68
2022/08/06 06:28:00;;;;;;;31.88;20.30;;;;;;;28.88;83.15;97705.19;4948199;28;20051;-70
2022/08/06 06:30:54;;;;;;;35.30;23.92;;;;;;;29.20;82.82;97716.19;4953219;28;20097;-70
2022/08/06 06:33:55;;;;;;;32.25;20.10;;;;;;;29.48;76.40;97715.97;4927783;28;20047;-71
2022/08/06 06:37:18;;;;;;;39.15;23.70;;;;;;;29.40;78.54;97714.22;4949074;28;20403;-70
2022/08/06 06:40:29;;;;;;;36.28;23.52;;;;;;;29.47;76.89;97704.13;4961369;28;20514;-67
2022/08/06 06:43:51;;;;;;;35.97;22.45;;;;;;;29.75;77.69;97707.84;4901402;28;20542;-72
2022/08/06 06:46:31;;;;;;;26.52;18.67;;;;;;;29.98;75.09;97705.09;4966959;28;20105;-71
2022/08/06 06:49:36;;;;;;;35.65;24.33;;;;;;;30.01;79.23;97704.38;4953905;28;20077;-73
2022/08/06 06:52:50;;;;;;;35.47;21.98;;;;;;;30.16;77.81;97711.75;4961644;28;20145;-71
2022/08/06 06:55:38;;;;;;;27.85;18.33;;;;;;;30.14;72.92;97705.78;4966650;28;20047;-69
2022/08/06 06:58:45;;;;;;;22.50;16.30;;;;;;;30.15;72.62;97703.81;4960477;28;20047;-72
2022/08/06 07:01:32;;;;;;;24.98;16.42;;;;;;;30.35;72.54;97699.06;4947289;28;20130;-72
2022/08/06 07:04:32;;;;;;;;;;;;;;;30.70;70.68;97690.50;4947897;28;20535;-72
2022/08/06 07:07:21;;;;;;;21.52;13.95;;;;;;;30.78;70.95;97661.75;4940984;28;19934;-71
2022/08/06 07:10:12;;;;;;;23.23;14.43;;;;;;;31.02;70.77;97656.97;4965062;28;20066;-73
2022/08/06 07:12:57;;;;;;;24.10;15.20;;;;;;;30.95;70.20;97649.34;4956913;28;20155;-73
2022/08/06 07:15:58;;;;;;;20.33;14.07;;;;;;;31.12;69.57;97645.22;4957051;28;20133;-71
2022/08/06 07:18:49;;;;;;;17.02;13.90;;;;;;;31.21;70.45;97658.78;4956077;28;20079;-73
2022/08/06 07:21:34;;;;;;;18.55;14.93;;;;;;;30.85;73.49;97669.38;4957424;28;20062;-72
2022/08/06 07:24:43;;;;;;;20.08;13.90;;;;;;;31.00;74.33;97681.47;4963457;28;20050;-70
2022/08/06 07:27:55;;;;;;;23.35;16.08;;;;;;;30.33;74.59;97682.03;4963624;28;20046;-69
2022/08/06 07:30:45;;;;;;;23.17;16.05;;;;;;;30.84;73.19;97670.56;4964959;28;20053;-69
2022/08/06 07:33:29;;;;;;;22.13;13.43;;;;;;;31.10;71.08;97668.94;4959977;28;20121;-71
2022/08/06 07:36:46;;;;;;;19.20;14.50;;;;;;;31.25;70.53;97647.75;4943874;28;20053;-74
2022/08/06 07:39:44;;;;;;;31.85;17.60;;;;;;;31.15;72.09;97640.91;4963271;28;20054;-73
2022/08/06 07:42:37;;;;;;;18.33;13.38;;;;;;;31.51;70.11;97633.00;4953088;28;20063;-71
2022/08/06 07:45:31;;;;;;;17.48;13.32;;;;;;;31.80;68.75;97623.81;4957267;28;20153;-71
2022/08/06 07:48:40;;;;;;;22.80;13.80;;;;;;;31.84;69.36;97609.19;4958216;28;20051;-68
2022/08/06 07:51:36;;;;;;;28.85;19.73;;;;;;;31.58;71.41;97620.00;4944455;28;20055;-68
2022/08/06 07:54:29;;;;;;;19.92;15.20;;;;;;;31.97;68.96;97621.59;4957178;28;20046;-70
2022/08/06 07:57:20;;;;;;;23.27;16.83;;;;;;;31.60;70.91;97608.53;4954715;28;20864;-70
2022/08/06 08:00:06;;;;;;;27.35;16.50;;;;;;;31.79;69.63;97602.78;4963302;28;20059;-69
2022/08/06 08:06:23;;;;;;;21.10;15.45;;;;;;;31.79;69.10;97599.22;4961980;28;20047;-71
2022/08/06 08:09:26;;;;;;;35.42;22.95;;;;;;;31.60;70.96;97601.03;4963716;28;20042;-70
2022/08/06 08:12:36;;;;;;;35.60;25.75;;;;;;;31.51;73.10;97611.66;4967576;28;20111;-70
2022/08/06 08:15:32;;;;;;;25.13;19.42;;;;;;;31.61;70.91;97607.38;4965965;28;20050;-70
2022/08/06 08:18:32;;;;;;;36.78;25.65;;;;;;;31.31;76.68;97597.13;4967300;28;20051;-70
2022/08/06 08:21:27;;;;;;;35.42;25.33;;;;;;;31.37;73.98;97601.16;4963732;28;20053;-71
2022/08/06 08:24:11;;;;;;;32.70;21.92;;;;;;;31.78;71.29;97592.88;4963466;28;20066;-70
2022/08/06 08:27:10;;;;;;;43.50;29.33;;;;;;;31.47;75.40;97588.63;4974371;28;20050;-71
2022/08/06 08:30:18;;;;;;;37.10;28.83;;;;;;;31.01;76.01;97584.13;4983834;28;20065;-71
2022/08/06 08:32:56;;;;;;;42.13;28.15;;;;;;;31.05;76.40;97577.81;4981047;28;20553;-68
2022/08/06 08:35:55;;;;;;;43.10;28.58;;;;;;;31.07;74.41;97581.81;4988208;28;20085;-68
2022/08/06 08:38:41;;;;;;;41.67;29.70;;;;;;;30.76;74.92;97589.31;4990618;28;20052;-71
2022/08/06 08:41:36;;;;;;;50.72;32.92;;;;;;;30.92;74.03;97588.38;4990138;28;20112;-72
2022/08/06 08:44:30;;;;;;;44.08;30.20;;;;;;;30.71;77.01;97584.09;4970210;28;20047;-72
2022/08/06 08:47:15;;;;;;;42.88;30.73;;;;;;;30.74;77.83;97585.31;4977357;28;20057;-71
2022/08/06 08:50:23;;;;;;;48.97;35.53;;;;;;;30.71;78.71;97577.78;4988502;28;20112;-72
2022/08/06 08:53:20;;;;;;;57.58;39.80;;;;;;;30.72;79.67;97573.81;4987373;28;20047;-69
2022/08/06 08:56:22;;;;;;;65.00;43.65;;;;;;;30.71;78.43;97553.66;4983105;28;20070;-68
2022/08/06 08:59:38;;;;;;;69.63;44.63;;;;;;;30.55;78.99;97548.28;4981074;28;20102;-72
2022/08/06 09:02:36;;;;;;;59.83;42.45;;;;;;;30.00;79.89;97543.13;4971460;28;20042;-70
2022/08/06 09:05:30;;;;;;;61.38;43.50;;;;;;;30.29;77.82;97540.00;4976350;28;20061;-75
2022/08/06 09:08:17;;;;;;;62.35;41.38;;;;;;;30.52;77.81;97526.91;4976267;28;20061;-73
2022/08/06 09:11:26;;;;;;;59.25;40.70;;;;;;;30.69;78.28;97517.22;4978748;28;20042;-71
2022/08/06 09:14:28;;;;;;;54.67;39.17;;;;;;;30.60;77.84;97500.09;4975651;28;20053;-72
2022/08/06 09:17:17;;;;;;;57.10;39.80;;;;;;;30.51;79.06;97496.81;4979614;28;20089;-70
2022/08/06 09:20:26;;;;;;;57.35;38.95;;;;;;;30.61;78.41;97493.38;4978425;28;20202;-72
2022/08/06 09:23:08;;;;;;;54.95;38.00;;;;;;;30.82;76.46;97487.28;4978568;28;20116;-68
2022/08/06 09:26:00;;;;;;;56.15;38.00;;;;;;;31.01;76.39;97478.03;4977996;28;20391;-70
2022/08/06 09:28:46;;;;;;;55.80;37.22;;;;;;;30.91;77.02;97468.44;4959232;28;20058;-72
2022/08/06 09:31:35;;;;;;;56.28;40.03;;;;;;;30.80;77.78;97461.94;4944002;28;20294;-70
2022/08/06 09:34:37;;;;;;;58.30;37.47;;;;;;;30.71;78.14;97456.72;4959082;28;20489;-70
2022/08/06 09:37:36;;;;;;;54.78;38.15;;;;;;;31.00;75.92;97446.75;4956513;28;20136;-68
2022/08/06 09:40:35;;;;;;;52.72;37.75;;;;;;;30.97;75.49;97439.19;4956518;28;20062;-71
2022/08/06 09:43:33;;;;;;;60.15;38.67;;;;;;;30.95;76.85;97419.38;4956936;28;20113;-71
2022/08/06 09:46:38;;;;;;;59.67;39.55;;;;;;;31.10;75.89;97422.31;4957266;28;20390;-69
2022/08/06 09:49:29;;;;;;;59.05;39.55;;;;;;;30.78;76.98;97411.66;4965024;28;20067;-70
2022/08/06 09:52:31;;;;;;;61.78;39.38;;;;;;;30.89;77.28;97420.09;4949110;28;20047;-75
2022/08/06 09:55:36;;;;;;;63.88;41.65;;;;;;;30.80;78.12;97415.66;4960630;28;20134;-72
2022/08/06 09:58:35;;;;;;;60.50;40.75;;;;;;;31.05;77.41;97411.56;4950858;28;20082;-74
2022/08/06 10:01:30;;;;;;;64.32;41.08;;;;;;;30.96;77.96;97409.91;4970781;28;20058;-73
2022/08/06 10:04:26;;;;;;;57.33;39.35;;;;;;;30.86;77.72;97404.22;4962172;28;20142;-75
2022/08/06 10:07:36;;;;;;;58.63;37.58;;;;;;;30.63;78.55;97392.16;4963625;28;20047;-71
2022/08/06 10:10:47;;;;;;;52.90;36.33;;;;;;;30.86;79.10;97388.44;4961062;28;20058;-73
2022/08/06 10:13:39;;;;;;;52.25;36.90;;;;;;;30.67;78.95;97383.88;4951475;28;20055;-72
2022/08/06 10:16:32;;;;;;;59.72;38.10;;;;;;;31.06;77.57;97377.94;4948690;28;20067;-74
2022/08/06 10:19:23;;;;;;;54.45;35.75;;;;;;;30.89;77.40;97376.56;4956833;28;20767;-71
2022/08/06 10:22:18;;;;;;;55.92;37.35;;;;;;;31.13;78.84;97371.66;4957670;28;20066;-71
2022/08/06 10:25:09;;;;;;;56.88;37.72;;;;;;;30.86;78.63;97371.00;4953147;28;20054;-73
2022/08/06 10:27:54;;;;;;;65.63;40.42;;;;;;;31.18;78.22;97354.66;4955540;28;20355;-71
2022/08/06 10:30:43;;;;;;;56.85;39.58;;;;;;;31.05;79.12;97343.13;4953129;28;20047;-71
2022/08/06 10:33:46;;;;;;;63.03;42.83;;;;;;;31.18;78.15;97338.03;4953465;28;20058;-72
2022/08/06 10:36:35;;;;;;;60.17;41.75;;;;;;;31.52;77.19;97335.16;4951886;28;20061;-71
2022/08/06 10:39:36;;;;;;;64.65;42.40;;;;;;;31.68;77.61;97327.31;4948232;28;20472;-73
2022/08/06 10:42:32;;;;;;;63.45;45.00;;;;;;;31.64;76.35;97325.69;4948618;28;20126;-71
2022/08/06 10:45:27;;;;;;;57.75;40.97;;;;;;;31.65;74.89;97330.06;4948650;28;20051;-73
2022/08/06 10:48:24;;;;;;;52.88;37.80;;;;;;;31.73;75.00;97326.16;4952354;28;20058;-73
2022/08/06 10:51:40;;;;;;;52.55;37.80;;;;;;;31.85;75.42;97309.16;4956423;28;20054;-72
2022/08/06 10:54:32;;;;;;;51.80;35.08;;;;;;;31.94;76.05;97301.28;4967407;28;20125;-73
2022/08/06 10:57:32;;;;;;;;;;;;;;;32.07;75.94;97304.53;4968212;28;20050;-72
2022/08/06 11:00:18;;;;;;;69.40;43.60;;;;;;;31.80;75.30;97306.78;4950742;28;19926;-71
2022/08/06 11:03:29;;;;;;;77.97;51.63;;;;;;;31.82;75.74;97292.53;4970226;28;20116;-72
2022/08/06 11:06:32;;;;;;;85.93;56.07;;;;;;;32.02;75.14;97287.47;4616110;28;10000000;-74
2022/08/06 11:09:55;;;;;;;94.80;60.05;;;;;;;32.17;74.87;97286.31;4965303;28;20289;-71
2022/08/06 11:13:13;;;;;;;113.65;70.55;;;;;;;31.99;75.40;97281.47;4967348;28;20050;-74
2022/08/06 11:15:56;;;;;;;129.10;83.22;;;;;;;31.35;76.15;97286.69;4954626;28;20134;-74
2022/08/06 11:19:09;;;;;;;130.32;82.03;;;;;;;31.56;76.95;97286.03;4950076;28;20058;-74
2022/08/06 11:21:51;;;;;;;103.13;68.75;;;;;;;31.52;76.62;97276.91;4946864;28;20147;-74
2022/08/06 11:24:57;;;;;;;82.07;57.30;;;;;;;31.50;75.64;97277.28;4947047;28;20066;-73
2022/08/06 11:27:56;;;;;;;74.72;53.03;;;;;;;31.53;75.69;97282.06;4950154;28;20109;-74
2022/08/06 11:30:50;;;;;;;69.53;47.80;;;;;;;31.71;76.38;97282.16;4949537;28;20062;-73
2022/08/06 11:33:35;;;;;;;72.38;46.47;;;;;;;31.98;75.17;97276.31;4964213;28;20039;-74
2022/08/06 11:36:34;;;;;;;69.60;45.33;;;;;;;31.85;74.70;97266.75;4960619;28;20170;-75
2022/08/06 11:39:20;;;;;;;70.03;47.65;;;;;;;31.95;74.61;97266.00;4963163;28;20382;-73
2022/08/06 11:42:48;;;;;;;63.17;45.60;;;;;;;32.00;73.60;97269.19;4945984;28;20059;-73
2022/08/06 11:45:30;;;;;;;68.90;49.37;;;;;;;32.03;75.28;97264.09;4964193;28;20504;-73
2022/08/06 11:49:06;;;;;;;67.07;50.90;;;;;;;32.29;73.96;97254.59;4967359;28;20754;-73
2022/08/06 11:51:51;;;;;;;76.93;52.95;;;;;;;31.67;75.56;97261.16;4955394;28;20440;-73
2022/08/06 11:54:56;;;;;;;78.20;53.35;;;;;;;31.88;74.05;97257.66;4962718;28;20058;-73
2022/08/06 11:57:40;;;;;;;75.90;53.90;;;;;;;32.34;72.81;97262.56;4967445;28;20047;-75
2022/08/06 12:00:30;;;;;;;74.65;53.20;;;;;;;31.89;74.97;97256.47;4954351;28;20051;-71
2022/08/06 12:03:39;;;;;;;66.18;50.70;;;;;;;31.96;73.96;97256.50;4948177;28;20059;-71
2022/08/06 12:06:31;;;;;;;61.85;47.08;;;;;;;31.82;75.40;97239.81;4947796;28;20063;-72
2022/08/06 12:09:35;;;;;;;57.50;40.25;;;;;;;31.80;73.65;97240.97;4948110;28;20495;-74
2022/08/06 12:12:33;;;;;;;54.05;40.33;;;;;;;32.24;72.87;97236.38;4947553;28;20057;-73
2022/08/06 12:15:30;;;;;;;51.15;38.17;;;;;;;32.41;72.58;97234.81;4947558;28;20059;-74
2022/08/06 12:18:45;;;;;;;51.40;35.53;;;;;;;32.33;71.86;97235.97;4948073;28;20150;-71
2022/08/06 12:21:28;;;;;;;51.58;35.75;;;;;;;32.47;71.46;97227.66;4952422;28;20047;-74
2022/08/06 12:24:32;;;;;;;46.20;34.22;;;;;;;32.29;72.22;97226.84;4966855;28;20125;-71
2022/08/06 12:27:48;;;;;;;46.45;31.88;;;;;;;32.26;71.94;97227.66;4978832;28;20861;-71
2022/08/06 12:30:50;;;;;;;44.50;32.05;;;;;;;32.27;72.25;97218.13;4953973;28;20075;-74
2022/08/06 12:33:33;;;;;;;46.83;32.92;;;;;;;32.14;71.80;97221.28;4959253;28;20117;-72
2022/08/06 12:36:28;;;;;;;42.88;31.70;;;;;;;32.39;71.34;97217.75;4950529;28;20113;-73
2022/08/06 12:39:17;;;;;;;45.90;31.30;;;;;;;32.42;71.42;97222.50;4956689;28;20117;-73
2022/08/06 12:42:23;;;;;;;42.35;31.95;;;;;;;32.34;71.05;97223.69;4966413;28;20148;-72
2022/08/06 12:45:37;;;;;;;40.47;31.35;;;;;;;32.09;75.23;97224.44;4961391;28;20051;-71
2022/08/06 12:48:35;;;;;;;48.05;33.20;;;;;;;32.03;75.21;97226.03;4946993;28;20040;-74
2022/08/06 12:51:27;;;;;;;45.80;32.22;;;;;;;32.02;76.43;97216.09;4947103;28;20412;-75
2022/08/06 12:54:16;;;;;;;46.17;32.45;;;;;;;31.99;76.55;97217.66;4946056;28;20079;-73
2022/08/06 12:57:07;;;;;;;49.63;32.78;;;;;;;32.00;76.14;97224.00;4948030;28;20055;-73
2022/08/06 13:00:09;;;;;;;51.58;34.05;;;;;;;31.89;77.38;97225.94;4947089;28;20128;-72
2022/08/06 13:02:55;;;;;;;52.38;33.63;;;;;;;31.85;77.64;97225.16;4969825;28;20162;-73
2022/08/06 13:05:50;;;;;;;53.03;34.90;;;;;;;31.73;78.43;97224.31;4964119;28;20043;-72
2022/08/06 13:08:32;;;;;;;52.15;34.25;;;;;;;31.71;78.62;97223.13;4971283;28;20053;-76
2022/08/06 13:11:24;;;;;;;53.72;35.67;;;;;;;31.70;78.09;97219.56;4976844;28;20054;-72
2022/08/06 13:14:13;;;;;;;55.22;38.53;;;;;;;31.79;77.00;97228.28;4966020;28;20125;-70
2022/08/06 13:17:03;;;;;;;58.95;40.05;;;;;;;31.85;77.64;97222.38;4967209;28;20054;-74
2022/08/06 13:19:59;;;;;;;66.72;40.97;;;;;;;31.85;78.54;97220.38;4954838;28;20155;-74
2022/08/06 13:22:57;;;;;;;70.88;47.15;;;;;;;31.78;78.56;97220.38;4962215;28;20059;-72
2022/08/06 13:25:57;;;;;;;73.68;48.45;;;;;;;31.69;78.81;97217.97;4955070;28;20047;-74
2022/08/06 13:29:29;;;;;;;77.95;52.72;;;;;;;31.60;78.18;97225.84;4982903;28;20050;-70
2022/08/06 13:32:40;;;;;;;;;;;;;;;31.63;78.49;97224.28;4942422;28;20106;-70
2022/08/06 13:35:34;;;;;;;80.00;53.28;;;;;;;31.50;79.58;97229.38;4953777;28;19926;-68
2022/08/06 13:38:37;;;;;;;81.95;55.55;;;;;;;31.51;79.47;97234.53;4969772;28;20078;-73
2022/08/06 13:41:27;;;;;;;82.78;56.88;;;;;;;31.56;79.05;97233.34;4968792;28;20090;-72